Time;durP1;ratioP1;P1;durP2;ratioP2;P2;SDS_P1;SDS_P2;PMS_P1;PMS_P2;Temp;Humidity;BMP_temperature;BMP_pressure;BME280_temperature;BME280_humidity;BME280_pressure;Samples;Min_cycle;Max_cycle;Signal;HPM_P1;HPM_P2
2023/06/13 00:02:10;;;;;;;7.57;4.68;;;17.10;43.00;;;;;;5028782;28;20044;-66
2023/06/13 00:04:36;;;;;;;9.88;4.53;;;17.10;43.00;;;;;;5048090;28;20052;-66
2023/06/13 00:07:07;;;;;;;6.93;4.30;;;17.10;43.30;;;;;;5041151;28;20053;-66
2023/06/13 00:09:33;;;;;;;7.53;4.25;;;17.00;43.50;;;;;;5038520;28;20064;-65
2023/06/13 00:11:58;;;;;;;5.75;4.43;;;16.90;43.90;;;;;;5038960;28;20401;-65
2023/06/13 00:14:24;;;;;;;7.90;4.28;;;16.90;44.30;;;;;;5032538;28;20060;-66
2023/06/13 00:16:52;;;;;;;8.65;4.13;;;16.80;44.40;;;;;;5036258;28;20079;-65
2023/06/13 00:19:19;;;;;;;5.65;3.80;;;16.70;44.50;;;;;;5043604;28;20127;-66
2023/06/13 00:21:47;;;;;;;5.97;3.90;;;16.70;44.80;;;;;;5033418;28;20140;-67
2023/06/13 00:24:13;;;;;;;6.13;4.18;;;16.60;45.10;;;;;;5017990;28;20045;-66
2023/06/13 00:26:39;;;;;;;7.95;4.05;;;16.60;45.10;;;;;;5033737;28;20064;-66
2023/06/13 00:29:04;;;;;;;7.18;4.97;;;16.50;45.30;;;;;;5045084;28;20069;-65
2023/06/13 00:31:30;;;;;;;6.53;4.32;;;16.50;45.50;;;;;;5040421;28;20556;-65
2023/06/13 00:33:57;;;;;;;6.38;4.18;;;16.50;45.70;;;;;;5033812;28;20557;-66
2023/06/13 00:36:27;;;;;;;6.80;4.05;;;16.50;45.70;;;;;;5041926;28;20495;-66
2023/06/13 00:38:53;;;;;;;;;;;16.50;45.90;;;;;;5044675;28;20086;-66
2023/06/13 00:41:19;;;;;;;6.18;4.00;;;16.40;47.00;;;;;;5051417;28;20499;-66
2023/06/13 00:43:44;;;;;;;7.40;3.80;;;16.40;45.90;;;;;;5048468;28;20096;-68
2023/06/13 00:46:13;;;;;;;9.82;4.05;;;16.30;46.30;;;;;;5030057;28;20049;-66
2023/06/13 00:48:42;;;;;;;6.53;4.63;;;16.20;46.60;;;;;;5044402;28;20199;-66
2023/06/13 00:51:09;;;;;;;6.40;4.07;;;16.20;46.80;;;;;;5051093;28;20025;-66
2023/06/13 00:53:35;;;;;;;8.55;4.70;;;16.10;47.20;;;;;;5048705;28;20053;-66
2023/06/13 00:56:02;;;;;;;6.47;4.65;;;16.00;47.40;;;;;;5049161;28;20101;-66
2023/06/13 00:58:28;;;;;;;6.07;4.50;;;15.90;47.70;;;;;;5050759;28;20084;-66
2023/06/13 01:00:54;;;;;;;10.38;4.30;;;15.90;47.90;;;;;;5049560;28;20037;-66
2023/06/13 01:03:20;;;;;;;6.13;4.20;;;15.80;48.10;;;;;;5047813;28;20121;-65
2023/06/13 01:05:47;;;;;;;7.13;4.03;;;15.80;48.10;;;;;;5040251;28;20904;-66
2023/06/13 01:08:31;;;;;;;5.75;4.18;;;15.80;48.30;;;;;;5019048;28;20041;-65
2023/06/13 01:11:06;;;;;;;6.75;4.50;;;15.80;49.50;;;;;;5038869;28;20029;-67
2023/06/13 01:13:53;;;;;;;5.80;4.07;;;15.80;48.70;;;;;;5040549;28;20333;-66
2023/06/13 01:16:25;;;;;;;8.50;4.32;;;15.70;48.80;;;;;;5037888;28;20052;-65
2023/06/13 01:18:54;;;;;;;6.63;4.63;;;15.60;49.30;;;;;;5042169;28;20049;-65
2023/06/13 01:21:21;;;;;;;5.35;4.45;;;15.60;49.10;;;;;;5034913;28;20323;-65
2023/06/13 01:23:57;;;;;;;6.90;4.18;;;15.60;49.20;;;;;;5033991;28;20371;-65
2023/06/13 01:26:51;;;;;;;6.88;4.05;;;15.60;49.50;;;;;;5036121;28;20052;-65
2023/06/13 01:29:17;;;;;;;7.88;4.60;;;15.60;49.60;;;;;;5040391;28;20041;-65
2023/06/13 01:31:46;;;;;;;8.20;4.68;;;15.60;49.10;;;;;;5037544;28;20724;-65
2023/06/13 01:34:14;;;;;;;5.40;4.45;;;15.50;49.30;;;;;;5033375;28;20040;-65
2023/06/13 01:36:39;;;;;;;8.63;4.50;;;15.50;49.50;;;;;;5034686;28;20436;-66
2023/06/13 01:39:05;;;;;;;5.28;4.50;;;15.50;49.60;;;;;;5032824;28;20049;-65
2023/06/13 01:41:31;;;;;;;5.47;4.18;;;15.40;49.70;;;;;;5037364;28;20486;-65
2023/06/13 01:43:56;;;;;;;6.15;4.63;;;15.40;49.70;;;;;;5038158;28;20139;-65
2023/06/13 01:46:26;;;;;;;7.63;4.30;;;15.40;50.90;;;;;;5037639;28;20137;-66
2023/06/13 01:49:33;;;;;;;8.25;4.50;;;15.40;50.30;;;;;;5036757;28;20049;-65
2023/06/13 01:52:50;;;;;;;6.18;4.05;;;15.30;50.90;;;;;;4996665;28;20112;-65
2023/06/13 01:55:43;;;;;;;8.30;4.82;;;15.30;51.20;;;;;;5044434;28;20039;-65
2023/06/13 01:58:21;;;;;;;8.73;5.10;;;15.30;50.40;;;;;;5044258;28;20048;-65
2023/06/13 02:00:49;;;;;;;9.38;4.90;;;15.30;50.00;;;;;;5040637;28;20043;-65
2023/06/13 02:03:15;;;;;;;5.32;4.22;;;15.20;49.60;;;;;;5040385;28;20162;-65
2023/06/13 02:05:41;;;;;;;9.93;5.00;;;15.30;49.60;;;;;;5043253;28;20159;-65
2023/06/13 02:08:06;;;;;;;7.30;4.75;;;15.30;49.50;;;;;;5039954;28;20120;-66
2023/06/13 02:10:32;;;;;;;9.55;4.88;;;15.40;49.50;;;;;;5046489;28;20056;-67
2023/06/13 02:12:58;;;;;;;8.43;4.75;;;15.40;49.50;;;;;;5041259;28;20045;-65
2023/06/13 02:15:23;;;;;;;6.35;4.88;;;15.40;49.60;;;;;;5047793;28;20419;-65
2023/06/13 02:17:49;;;;;;;6.75;4.80;;;15.30;49.60;;;;;;5039308;28;20167;-66
2023/06/13 02:20:14;;;;;;;6.22;4.45;;;15.20;49.80;;;;;;5040011;28;20065;-66
2023/06/13 02:22:40;;;;;;;8.57;5.00;;;15.20;49.90;;;;;;5036888;28;20129;-66
2023/06/13 02:25:06;;;;;;;10.30;4.47;;;15.10;50.10;;;;;;5043084;28;20699;-66
2023/06/13 02:27:31;;;;;;;7.68;4.47;;;15.10;50.40;;;;;;5029307;28;20040;-66
2023/06/13 02:29:57;;;;;;;7.80;4.93;;;15.00;50.50;;;;;;5043972;28;20041;-66
2023/06/13 02:32:24;;;;;;;7.50;4.72;;;15.00;50.60;;;;;;5045291;28;20037;-66
2023/06/13 02:34:51;;;;;;;12.35;5.10;;;14.90;50.80;;;;;;5036024;28;20071;-65
2023/06/13 02:37:18;;;;;;;7.05;4.70;;;14.90;51.00;;;;;;5034772;28;20057;-65
2023/06/13 02:39:43;;;;;;;7.80;5.00;;;14.90;51.90;;;;;;5047430;28;20032;-66
2023/06/13 02:42:09;;;;;;;7.28;4.88;;;14.80;51.30;;;;;;5041937;28;20045;-66
2023/06/13 02:44:34;;;;;;;8.00;5.10;;;14.80;51.50;;;;;;5033790;28;20118;-66
2023/06/13 02:47:00;;;;;;;7.32;4.88;;;14.70;51.50;;;;;;5031927;28;20044;-66
2023/06/13 02:49:25;;;;;;;6.13;4.97;;;14.80;51.70;;;;;;5044932;28;20053;-65
2023/06/13 02:51:51;;;;;;;10.35;4.55;;;14.80;51.80;;;;;;5036480;28;20076;-65
2023/06/13 02:54:17;;;;;;;7.70;4.97;;;14.70;51.90;;;;;;5024484;28;20049;-65
2023/06/13 02:56:42;;;;;;;7.50;5.20;;;14.70;52.00;;;;;;5045850;28;20040;-66
2023/06/13 02:59:08;;;;;;;7.35;5.20;;;14.70;52.10;;;;;;5045729;28;20029;-65
2023/06/13 03:01:34;;;;;;;6.65;4.90;;;14.60;52.20;;;;;;5035953;28;20080;-65
2023/06/13 03:04:00;;;;;;;9.63;5.40;;;14.60;51.80;;;;;;5033202;28;20102;-65
2023/06/13 03:06:26;;;;;;;8.02;5.00;;;14.60;51.70;;;;;;5041319;28;20040;-65
2023/06/13 03:08:52;;;;;;;8.85;4.88;;;14.60;52.00;;;;;;5044596;28;20044;-65
2023/06/13 03:11:18;;;;;;;6.40;5.10;;;14.50;52.20;;;;;;5042539;28;20133;-66
2023/06/13 03:13:45;;;;;;;7.55;4.65;;;14.50;52.50;;;;;;5043936;28;20032;-65
2023/06/13 03:16:11;;;;;;;6.65;5.40;;;14.50;52.70;;;;;;5042762;28;20058;-66
2023/06/13 03:18:37;;;;;;;10.02;5.13;;;14.50;53.00;;;;;;5043305;28;20434;-66
2023/06/13 03:21:03;;;;;;;8.48;5.40;;;14.50;53.20;;;;;;5047484;28;20033;-65
2023/06/13 03:23:29;;;;;;;8.55;5.30;;;14.40;53.20;;;;;;5036886;28;20542;-65
2023/06/13 03:25:55;;;;;;;9.13;5.00;;;14.50;53.10;;;;;;5036336;28;20037;-68
2023/06/13 03:28:20;;;;;;;6.43;4.90;;;14.40;53.20;;;;;;5036877;28;20056;-66
2023/06/13 03:30:46;;;;;;;6.72;4.85;;;14.40;53.20;;;;;;5042327;28;20037;-65
2023/06/13 03:33:11;;;;;;;8.40;4.82;;;14.40;53.20;;;;;;5023761;28;20041;-65
2023/06/13 03:35:38;;;;;;;8.88;5.40;;;14.40;53.50;;;;;;5028700;28;20048;-65
2023/06/13 03:38:03;;;;;;;10.25;5.50;;;14.30;53.60;;;;;;5039716;28;20056;-66
2023/06/13 03:40:29;;;;;;;9.80;5.20;;;14.30;53.80;;;;;;5041812;28;20029;-66
2023/06/13 03:42:55;;;;;;;10.43;5.75;;;14.30;54.00;;;;;;5032547;28;20087;-66
2023/06/13 03:45:24;;;;;;;7.18;5.07;;;14.20;54.00;;;;;;5041092;28;20037;-65
2023/06/13 03:47:50;;;;;;;7.13;5.25;;;14.20;54.10;;;;;;5045462;28;20049;-65
2023/06/13 03:50:16;;;;;;;7.20;5.10;;;14.20;54.10;;;;;;5034927;28;20040;-66
2023/06/13 03:52:41;;;;;;;7.68;5.50;;;14.20;54.30;;;;;;5027221;28;20132;-65
2023/06/13 03:55:07;;;;;;;7.13;5.18;;;14.10;54.30;;;;;;5032884;28;20041;-65
2023/06/13 03:57:32;;;;;;;8.02;5.45;;;14.10;54.30;;;;;;5041469;28;20037;-66
2023/06/13 03:59:58;;;;;;;6.40;5.47;;;14.10;54.20;;;;;;5022648;28;20049;-68
2023/06/13 04:02:23;;;;;;;10.00;5.60;;;14.10;54.40;;;;;;5034142;28;20103;-66
2023/06/13 04:04:52;;;;;;;9.02;5.25;;;14.10;54.40;;;;;;5033323;28;20025;-66
2023/06/13 04:07:21;;;;;;;7.65;5.75;;;14.10;54.40;;;;;;5027060;28;20045;-65
2023/06/13 04:09:47;;;;;;;12.18;6.10;;;14.10;54.40;;;;;;5034669;28;20469;-66
2023/06/13 04:12:12;;;;;;;9.35;5.15;;;14.10;54.50;;;;;;5033529;28;20040;-65
2023/06/13 04:14:38;;;;;;;8.93;5.28;;;14.20;54.50;;;;;;5033927;28;20369;-65
2023/06/13 04:17:06;;;;;;;10.05;5.47;;;14.20;54.40;;;;;;5035106;28;20045;-65
2023/06/13 04:19:31;;;;;;;10.00;5.40;;;14.20;54.50;;;;;;5037883;28;20165;-65
2023/06/13 04:21:59;;;;;;;8.60;5.72;;;14.30;54.60;;;;;;5034518;28;20033;-66
2023/06/13 04:24:25;;;;;;;9.15;5.55;;;14.20;54.80;;;;;;5037993;28;20045;-65
2023/06/13 04:26:51;;;;;;;8.10;5.30;;;14.30;55.00;;;;;;5037412;28;20439;-65
2023/06/13 04:29:18;;;;;;;8.23;5.10;;;14.30;55.10;;;;;;5042037;28;20033;-65
2023/06/13 04:31:45;;;;;;;7.45;5.50;;;14.30;55.10;;;;;;5026841;28;20109;-65
2023/06/13 04:34:11;;;;;;;7.45;5.20;;;14.30;55.20;;;;;;5038071;28;20052;-65
2023/06/13 04:36:38;;;;;;;8.77;5.47;;;14.30;55.30;;;;;;5047339;28;20120;-66
2023/06/13 04:39:06;;;;;;;9.35;6.00;;;14.40;55.40;;;;;;5050231;28;20051;-67
2023/06/13 04:41:37;;;;;;;10.23;5.70;;;14.50;55.60;;;;;;5048659;28;20441;-66
2023/06/13 04:44:05;;;;;;;12.15;6.28;;;14.50;55.50;;;;;;5048885;28;20640;-65
2023/06/13 04:46:31;;;;;;;13.05;5.97;;;14.60;55.40;;;;;;5047008;28;20041;-65
2023/06/13 04:48:57;;;;;;;13.23;5.25;;;14.70;55.30;;;;;;5039428;28;20623;-65
2023/06/13 04:51:25;;;;;;;12.82;6.00;;;14.80;55.40;;;;;;5042090;28;20045;-65
2023/06/13 04:53:56;;;;;;;8.70;5.70;;;14.90;55.40;;;;;;5044548;28;20604;-66
2023/06/13 04:56:32;;;;;;;14.70;5.45;;;15.00;55.30;;;;;;5047817;28;20688;-65
2023/06/13 04:58:58;;;;;;;10.15;5.63;;;15.20;55.00;;;;;;5052071;28;20075;-65
2023/06/13 05:01:26;;;;;;;9.75;5.50;;;15.30;54.80;;;;;;5043426;28;20036;-66
2023/06/13 05:03:53;;;;;;;6.63;4.93;;;15.40;54.70;;;;;;5044519;28;20044;-66
2023/06/13 05:06:21;;;;;;;7.80;5.63;;;15.50;54.50;;;;;;5048219;28;20040;-65
2023/06/13 05:08:47;;;;;;;6.80;5.18;;;15.70;54.40;;;;;;5034045;28;20048;-65
2023/06/13 05:11:13;;;;;;;10.23;5.75;;;15.80;54.30;;;;;;5021659;28;20041;-65
2023/06/13 05:13:39;;;;;;;8.63;5.40;;;16.00;54.10;;;;;;5042104;28;20037;-66
2023/06/13 05:16:04;;;;;;;8.20;5.47;;;16.20;53.90;;;;;;5039584;28;20037;-65
2023/06/13 05:18:31;;;;;;;10.23;5.70;;;16.40;53.80;;;;;;5040133;28;20049;-66
2023/06/13 05:20:58;;;;;;;9.73;5.93;;;16.60;53.40;;;;;;5034050;28;20033;-65
2023/06/13 05:23:23;;;;;;;9.27;5.65;;;16.80;52.80;;;;;;5045373;28;20049;-66
2023/06/13 05:25:49;;;;;;;7.15;5.00;;;17.00;52.60;;;;;;5035852;28;20052;-66
2023/06/13 05:28:18;;;;;;;8.45;4.95;;;17.10;52.40;;;;;;5037632;28;20049;-66
2023/06/13 05:30:44;;;;;;;8.30;5.50;;;17.30;51.80;;;;;;5033145;28;20052;-66
2023/06/13 05:33:11;;;;;;;8.32;5.70;;;17.50;51.40;;;;;;5020008;28;20037;-67
2023/06/13 05:35:36;;;;;;;8.43;5.53;;;17.70;50.80;;;;;;5037544;28;20043;-67
2023/06/13 05:38:02;;;;;;;7.80;4.90;;;17.80;50.30;;;;;;5033569;28;20040;-67
2023/06/13 05:40:28;;;;;;;7.57;5.20;;;18.00;49.90;;;;;;5035133;28;20050;-66
2023/06/13 05:42:53;;;;;;;9.65;5.22;;;18.10;49.50;;;;;;5035153;28;20153;-67
2023/06/13 05:45:21;;;;;;;11.60;5.35;;;18.30;48.60;;;;;;5035384;28;20045;-66
2023/06/13 05:47:46;;;;;;;8.45;4.65;;;18.40;47.80;;;;;;5036591;28;20455;-66
2023/06/13 05:50:13;;;;;;;8.15;5.30;;;18.50;47.30;;;;;;5033792;28;20049;-65
2023/06/13 05:52:38;;;;;;;7.18;4.97;;;18.60;46.50;;;;;;5026120;28;20441;-67
2023/06/13 05:55:05;;;;;;;8.48;5.00;;;18.70;45.70;;;;;;5036533;28;20040;-65
2023/06/13 05:57:38;;;;;;;11.95;5.22;;;18.70;45.10;;;;;;5034390;28;20059;-66
2023/06/13 06:00:07;;;;;;;9.85;4.68;;;18.80;43.30;;;;;;5037438;28;20041;-66
2023/06/13 06:02:33;;;;;;;8.20;4.68;;;18.80;43.60;;;;;;5039427;28;20034;-67
2023/06/13 06:05:00;;;;;;;6.65;4.38;;;18.90;43.00;;;;;;5043269;28;20895;-65
2023/06/13 06:07:26;;;;;;;8.90;4.20;;;19.00;42.50;;;;;;5042844;28;20393;-66
2023/06/13 06:09:52;;;;;;;9.38;4.38;;;19.20;42.40;;;;;;5038367;28;20377;-66
2023/06/13 06:12:17;;;;;;;7.57;4.57;;;19.40;41.90;;;;;;5036783;28;20051;-67
2023/06/13 06:14:43;;;;;;;5.93;4.20;;;19.60;41.20;;;;;;5043311;28;20472;-66
2023/06/13 06:17:08;;;;;;;6.60;4.45;;;19.80;40.60;;;;;;5035246;28;20427;-66
2023/06/13 06:19:34;;;;;;;8.45;4.57;;;19.80;40.20;;;;;;5039201;28;20025;-66
2023/06/13 06:22:00;;;;;;;5.88;4.50;;;20.00;39.90;;;;;;5043886;28;20071;-67
2023/06/13 06:24:25;;;;;;;6.43;4.40;;;20.10;39.40;;;;;;5035892;28;20341;-66
2023/06/13 06:26:51;;;;;;;5.90;3.70;;;20.20;38.50;;;;;;5031449;28;20057;-68
2023/06/13 06:29:16;;;;;;;5.40;3.95;;;20.40;38.10;;;;;;5043564;28;20044;-66
2023/06/13 06:31:42;;;;;;;6.40;3.88;;;20.50;37.50;;;;;;5037632;28;20420;-67
2023/06/13 06:34:07;;;;;;;6.60;4.20;;;20.70;37.20;;;;;;5040614;28;20660;-67
2023/06/13 06:36:33;;;;;;;4.90;3.38;;;20.80;36.80;;;;;;5044830;28;20428;-67
2023/06/13 06:38:59;;;;;;;8.55;4.15;;;21.10;36.30;;;;;;5042384;28;20835;-68
2023/06/13 06:41:24;;;;;;;5.55;3.60;;;21.30;35.60;;;;;;5047637;28;20079;-68
2023/06/13 06:43:50;;;;;;;5.57;3.53;;;21.40;34.10;;;;;;5041581;28;20046;-68
2023/06/13 06:46:15;;;;;;;7.40;3.47;;;21.50;34.80;;;;;;5039181;28;20043;-67
2023/06/13 06:48:41;;;;;;;7.43;3.15;;;21.80;34.90;;;;;;5033247;28;20707;-68
2023/06/13 06:51:07;;;;;;;4.63;3.80;;;22.00;34.30;;;;;;5038937;28;20049;-69
2023/06/13 06:53:33;;;;;;;4.63;3.47;;;22.20;33.40;;;;;;5019260;28;20424;-68
2023/06/13 06:55:58;;;;;;;3.55;3.08;;;22.20;33.40;;;;;;5031795;28;20051;-70
2023/06/13 06:58:24;;;;;;;4.43;3.40;;;22.50;33.40;;;;;;5038637;28;20149;-69
2023/06/13 07:00:49;;;;;;;4.65;3.22;;;22.90;33.40;;;;;;5020274;28;20072;-68
2023/06/13 07:03:15;;;;;;;4.43;3.20;;;23.10;33.30;;;;;;5033804;28;20030;-67
2023/06/13 07:05:41;;;;;;;4.43;3.30;;;23.20;33.00;;;;;;5039240;28;20500;-68
2023/06/13 07:08:06;;;;;;;4.22;3.30;;;23.40;32.60;;;;;;5040637;28;20088;-68
2023/06/13 07:10:32;;;;;;;8.95;3.30;;;23.60;32.60;;;;;;5034853;28;20041;-69
2023/06/13 07:12:57;;;;;;;5.15;2.67;;;23.80;32.00;;;;;;5029583;28;20128;-69
2023/06/13 07:15:23;;;;;;;4.63;2.72;;;23.80;31.70;;;;;;5034083;28;20033;-68
2023/06/13 07:17:49;;;;;;;4.07;3.05;;;23.70;31.50;;;;;;5035527;28;20735;-69
2023/06/13 07:20:14;;;;;;;4.40;3.22;;;23.80;31.10;;;;;;5033846;28;20431;-68
2023/06/13 07:22:40;;;;;;;7.13;3.30;;;24.00;30.70;;;;;;5034659;28;20098;-70
2023/06/13 07:25:06;;;;;;;4.75;3.22;;;24.00;30.00;;;;;;5044108;28;20442;-69
2023/06/13 07:27:32;;;;;;;4.63;3.00;;;24.20;30.10;;;;;;5037494;28;20123;-69
2023/06/13 07:29:57;;;;;;;3.22;2.70;;;24.30;30.10;;;;;;5040528;28;20184;-68
2023/06/13 07:32:23;;;;;;;4.93;2.65;;;24.50;30.00;;;;;;5030595;28;20158;-67
2023/06/13 07:34:49;;;;;;;3.22;2.90;;;24.40;29.40;;;;;;5043021;28;20087;-67
2023/06/13 07:37:15;;;;;;;7.40;3.40;;;24.40;29.50;;;;;;5043263;28;20049;-70
2023/06/13 07:39:40;;;;;;;3.88;2.78;;;24.50;29.10;;;;;;5045960;28;20043;-67
2023/06/13 07:42:07;;;;;;;6.13;3.00;;;24.70;29.10;;;;;;5039993;28;20056;-69
2023/06/13 07:44:32;;;;;;;4.90;2.92;;;25.10;29.20;;;;;;5037855;28;20041;-69
2023/06/13 07:46:58;;;;;;;5.93;2.30;;;25.30;28.70;;;;;;5039375;28;20094;-69
2023/06/13 07:49:24;;;;;;;5.78;3.08;;;25.50;28.60;;;;;;5043908;28;20116;-70
2023/06/13 07:51:50;;;;;;;4.30;3.15;;;25.80;28.40;;;;;;5040734;28;20118;-69
2023/06/13 07:54:16;;;;;;;3.95;2.85;;;26.10;28.20;;;;;;5036326;28;20045;-68
2023/06/13 07:56:41;;;;;;;4.22;2.90;;;26.20;28.20;;;;;;5039114;28;20044;-68
2023/06/13 07:59:07;;;;;;;7.80;3.33;;;26.20;27.00;;;;;;5037538;28;20041;-69
2023/06/13 08:01:32;;;;;;;3.65;2.20;;;26.40;27.00;;;;;;5035792;28;20111;-70
2023/06/13 08:03:58;;;;;;;3.15;2.40;;;26.50;26.60;;;;;;5035975;28;20087;-69
2023/06/13 08:06:24;;;;;;;4.90;2.67;;;26.90;26.80;;;;;;5031270;28;20083;-71
2023/06/13 08:08:49;;;;;;;6.30;2.80;;;27.20;26.70;;;;;;5037106;28;20085;-70
2023/06/13 08:11:15;;;;;;;3.88;2.63;;;27.60;26.30;;;;;;5024735;28;20072;-71
2023/06/13 08:13:40;;;;;;;5.90;3.17;;;27.70;26.10;;;;;;5042585;28;20068;-71
2023/06/13 08:16:06;;;;;;;3.53;2.60;;;27.80;25.40;;;;;;5049731;28;20422;-71
2023/06/13 08:18:32;;;;;;;5.45;2.25;;;27.90;24.90;;;;;;5048341;28;20519;-73
2023/06/13 08:20:57;;;;;;;2.72;2.15;;;28.00;24.60;;;;;;5038260;28;20048;-70
2023/06/13 08:23:23;;;;;;;3.20;2.30;;;28.00;23.80;;;;;;5023771;28;20167;-72
2023/06/13 08:25:48;;;;;;;2.80;2.33;;;27.80;23.30;;;;;;5042811;28;20041;-73
2023/06/13 08:28:14;;;;;;;2.72;2.30;;;28.00;23.10;;;;;;5049581;28;20049;-70
2023/06/13 08:30:42;;;;;;;3.20;2.33;;;28.10;23.20;;;;;;5044421;28;20127;-73
2023/06/13 08:33:10;;;;;;;3.60;2.55;;;28.30;23.00;;;;;;5049170;28;20497;-74
2023/06/13 08:35:36;;;;;;;4.50;2.53;;;28.40;22.70;;;;;;5041442;28;20153;-75
2023/06/13 08:38:01;;;;;;;5.15;2.60;;;28.50;22.10;;;;;;5037590;28;20401;-70
2023/06/13 08:40:27;;;;;;;2.90;2.60;;;28.50;21.90;;;;;;5041475;28;20496;-73
2023/06/13 08:42:53;;;;;;;3.45;2.65;;;28.40;21.50;;;;;;5024056;28;20032;-75
2023/06/13 08:45:19;;;;;;;2.88;2.45;;;28.60;21.80;;;;;;5048937;28;20033;-75
2023/06/13 08:47:49;;;;;;;3.38;2.55;;;28.90;21.20;;;;;;5043802;28;20049;-74
2023/06/13 08:50:18;;;;;;;3.92;2.47;;;29.10;21.00;;;;;;5042383;28;20478;-68
2023/06/13 08:52:46;;;;;;;3.80;2.60;;;29.10;20.70;;;;;;5026417;28;20032;-70
2023/06/13 08:55:21;;;;;;;3.45;2.38;;;29.00;20.10;;;;;;5032889;28;20874;-75
2023/06/13 08:57:52;;;;;;;2.63;2.13;;;28.60;20.40;;;;;;5011630;28;20060;-70
2023/06/13 09:00:18;;;;;;;2.53;2.33;;;28.70;20.50;;;;;;5046132;28;20143;-74
2023/06/13 09:02:45;;;;;;;3.22;2.42;;;29.10;20.70;;;;;;5035709;28;20115;-68
2023/06/13 09:05:13;;;;;;;5.60;2.50;;;29.40;20.70;;;;;;5033331;28;20041;-73
2023/06/13 09:07:40;;;;;;;3.10;2.55;;;29.70;20.40;;;;;;5044549;28;20495;-70
2023/06/13 09:10:10;;;;;;;3.90;2.60;;;30.30;20.10;;;;;;5047178;28;20045;-72
2023/06/13 09:12:36;;;;;;;4.88;2.95;;;30.80;20.10;;;;;;5032355;28;20060;-75
2023/06/13 09:15:03;;;;;;;4.18;2.80;;;30.90;19.70;;;;;;5050405;28;20048;-74
2023/06/13 09:17:28;;;;;;;7.80;2.83;;;31.10;19.30;;;;;;5043419;28;20060;-75
2023/06/13 09:19:54;;;;;;;7.45;3.20;;;30.90;19.30;;;;;;5045793;28;20071;-74
2023/06/13 09:22:20;;;;;;;5.63;2.80;;;31.30;19.20;;;;;;5037518;28;20429;-71
2023/06/13 09:24:46;;;;;;;2.97;2.28;;;31.80;19.20;;;;;;5046250;28;20036;-78
2023/06/13 09:27:13;;;;;;;3.80;2.33;;;31.60;18.80;;;;;;5046156;28;20420;-74
2023/06/13 09:29:39;;;;;;;3.83;2.20;;;32.30;18.90;;;;;;5048087;28;20041;-74
2023/06/13 09:32:05;;;;;;;4.53;2.85;;;32.50;18.80;;;;;;5046937;28;20131;-75
2023/06/13 09:34:31;;;;;;;3.60;2.80;;;32.50;18.40;;;;;;5045766;28;20098;-77
2023/06/13 09:36:58;;;;;;;4.05;2.83;;;32.40;18.50;;;;;;5043047;28;20042;-74
2023/06/13 09:39:25;;;;;;;3.95;2.60;;;33.20;18.50;;;;;;5033552;28;20036;-75
2023/06/13 09:41:59;;;;;;;5.55;3.00;;;33.30;18.50;;;;;;5047198;28;20052;-72
2023/06/13 09:44:26;;;;;;;9.75;2.80;;;33.80;18.20;;;;;;5044728;28;20064;-72
2023/06/13 09:46:52;;;;;;;6.15;2.72;;;34.10;18.30;;;;;;5046180;28;20088;-72
2023/06/13 09:49:18;;;;;;;4.45;2.72;;;34.30;18.00;;;;;;5045306;28;20048;-76
2023/06/13 09:51:47;;;;;;;3.40;2.40;;;34.30;17.80;;;;;;5030498;28;20032;-75
2023/06/13 09:54:16;;;;;;;4.47;2.78;;;34.40;16.90;;;;;;5032086;28;20076;-74
2023/06/13 09:56:43;;;;;;;4.82;2.70;;;34.20;17.40;;;;;;5047924;28;20101;-72
2023/06/13 09:59:17;;;;;;;4.43;2.67;;;34.20;17.90;;;;;;5049308;28;20067;-72
2023/06/13 10:01:47;;;;;;;3.65;2.47;;;34.10;17.60;;;;;;5048937;28;20040;-75
2023/06/13 10:04:12;;;;;;;;;;;34.70;17.50;;;;;;5030537;28;20044;-71
2023/06/13 10:06:38;;;;;;;4.55;2.58;;;34.40;17.20;;;;;;5030660;28;19990;-76
2023/06/13 10:09:03;;;;;;;3.13;2.60;;;34.80;17.80;;;;;;5022599;28;20053;-76
2023/06/13 10:11:34;;;;;;;3.00;2.70;;;35.50;17.60;;;;;;5040083;28;20072;-75
2023/06/13 10:14:28;;;;;;;3.80;2.75;;;35.80;17.20;;;;;;5042826;28;20045;-79
2023/06/13 10:17:03;;;;;;;6.07;2.65;;;36.10;16.80;;;;;;5037324;28;20052;-74
2023/06/13 10:19:31;;;;;;;3.83;2.65;;;35.90;16.90;;;;;;5042583;28;20095;-73
2023/06/13 10:21:58;;;;;;;3.95;2.80;;;36.10;16.70;;;;;;5026059;28;20115;-72
2023/06/13 10:24:24;;;;;;;4.68;2.92;;;36.00;16.20;;;;;;5043357;28;20493;-76
2023/06/13 10:26:54;;;;;;;3.85;3.17;;;36.30;16.80;;;;;;5039143;28;20478;-78
2023/06/13 10:29:23;;;;;;;4.68;2.70;;;36.80;16.40;;;;;;5045030;28;20091;-73
2023/06/13 10:32:10;;;;;;;4.72;3.28;;;37.00;16.40;;;;;;5043044;28;20036;-74
2023/06/13 10:34:55;;;;;;;5.07;2.95;;;37.10;15.90;;;;;;5037755;28;20049;-76
2023/06/13 10:37:30;;;;;;;3.40;2.80;;;37.40;15.80;;;;;;5026034;28;20176;-70
2023/06/13 10:40:15;;;;;;;4.20;2.72;;;37.40;16.30;;;;;;5047647;28;20041;-77
2023/06/13 10:42:47;;;;;;;5.57;2.90;;;37.90;15.50;;;;;;5044496;28;20043;-75
2023/06/13 10:45:21;;;;;;;4.03;2.90;;;37.30;16.10;;;;;;5046155;28;20080;-73
2023/06/13 10:47:47;;;;;;;3.17;2.88;;;36.50;16.40;;;;;;5044025;28;20056;-75
2023/06/13 10:50:16;;;;;;;5.60;2.90;;;37.10;16.20;;;;;;5040442;28;20041;-74
2023/06/13 10:52:49;;;;;;;4.10;2.80;;;37.70;16.70;;;;;;5020658;28;20338;-78
2023/06/13 10:55:25;;;;;;;5.80;2.88;;;37.00;15.80;;;;;;5027505;28;20040;-74
2023/06/13 10:57:53;;;;;;;3.85;3.33;;;35.20;15.90;;;;;;5045920;28;20462;-76
2023/06/13 11:00:26;;;;;;;4.65;2.72;;;34.10;16.70;;;;;;5044302;28;20519;-75
2023/06/13 11:03:08;;;;;;;6.78;3.40;;;32.60;17.70;;;;;;5047935;28;20065;-71
2023/06/13 11:05:36;;;;;;;4.47;2.70;;;31.40;17.90;;;;;;5021072;28;20055;-75
2023/06/13 11:08:04;;;;;;;5.88;2.78;;;30.60;19.40;;;;;;5029928;28;20045;-73
2023/06/13 11:10:30;;;;;;;7.03;2.72;;;30.20;20.20;;;;;;5026785;28;20045;-75
2023/06/13 11:12:56;;;;;;;3.10;2.72;;;29.90;20.70;;;;;;5033934;28;20037;-74
2023/06/13 11:15:23;;;;;;;6.70;3.03;;;29.50;20.50;;;;;;5046558;28;20037;-72
2023/06/13 11:18:04;;;;;;;3.33;2.65;;;29.20;21.40;;;;;;5032198;28;20037;-74
2023/06/13 11:20:32;;;;;;;3.63;2.95;;;29.40;21.50;;;;;;5028383;28;20044;-75
2023/06/13 11:22:58;;;;;;;3.47;3.00;;;29.30;21.50;;;;;;5026719;28;20031;-74
2023/06/13 11:25:24;;;;;;;3.15;2.70;;;29.30;21.70;;;;;;5030842;28;20419;-71
2023/06/13 11:27:50;;;;;;;3.78;2.95;;;29.40;21.70;;;;;;5038123;28;20041;-72
2023/06/13 11:30:17;;;;;;;3.75;2.95;;;29.60;21.70;;;;;;5041790;28;20588;-73
2023/06/13 11:32:43;;;;;;;4.72;3.13;;;29.50;21.40;;;;;;5034062;28;20037;-74
2023/06/13 11:35:12;;;;;;;4.40;2.80;;;29.40;21.70;;;;;;5031672;28;20045;-75
2023/06/13 11:37:44;;;;;;;4.90;2.75;;;29.70;21.90;;;;;;5038501;28;20095;-73
2023/06/13 11:40:25;;;;;;;3.25;2.80;;;29.70;21.80;;;;;;5019946;28;20056;-72
2023/06/13 11:42:51;;;;;;;4.85;2.95;;;29.70;21.80;;;;;;5039304;28;20036;-73
2023/06/13 11:45:21;;;;;;;6.00;3.28;;;29.70;21.70;;;;;;5038216;28;20430;-70
2023/06/13 11:47:47;;;;;;;5.28;3.10;;;29.60;21.50;;;;;;5026905;28;20068;-71
2023/06/13 11:50:12;;;;;;;4.82;2.55;;;29.50;21.60;;;;;;5045477;28;20060;-74
2023/06/13 11:52:38;;;;;;;4.43;3.00;;;29.40;21.60;;;;;;5012348;28;20069;-74
2023/06/13 11:55:16;;;;;;;3.00;2.63;;;29.30;21.80;;;;;;5038077;28;20053;-72
2023/06/13 11:57:48;;;;;;;5.35;2.97;;;28.90;23.20;;;;;;5044409;28;20193;-72
2023/06/13 12:00:14;;;;;;;5.50;2.90;;;28.90;23.10;;;;;;5041274;28;20185;-73
2023/06/13 12:02:40;;;;;;;6.03;3.25;;;28.90;23.10;;;;;;5039186;28;20120;-72
2023/06/13 12:05:09;;;;;;;7.00;3.08;;;29.10;23.20;;;;;;5042701;28;20124;-72
2023/06/13 12:07:35;;;;;;;3.20;2.85;;;29.00;22.80;;;;;;5043440;28;20143;-69
2023/06/13 12:10:00;;;;;;;3.80;2.80;;;29.10;22.90;;;;;;5023422;28;20436;-70
2023/06/13 12:12:26;;;;;;;5.57;3.08;;;29.00;22.50;;;;;;5037008;28;20484;-73
2023/06/13 12:14:54;;;;;;;5.85;3.67;;;29.00;22.50;;;;;;5047346;28;20036;-76
2023/06/13 12:17:21;;;;;;;4.95;2.60;;;29.40;22.80;;;;;;5022379;28;20076;-73
2023/06/13 12:19:47;;;;;;;6.60;3.00;;;29.70;22.80;;;;;;5024345;28;20044;-72
2023/06/13 12:22:13;;;;;;;8.80;3.10;;;30.40;22.50;;;;;;5027369;28;20056;-73
2023/06/13 12:24:39;;;;;;;7.78;3.03;;;31.50;22.20;;;;;;5025657;28;20074;-71
2023/06/13 12:27:05;;;;;;;6.45;2.80;;;33.20;21.60;;;;;;5032991;28;20048;-72
2023/06/13 12:29:33;;;;;;;5.88;3.20;;;34.60;20.60;;;;;;5045870;28;20280;-74
2023/06/13 12:32:03;;;;;;;5.28;2.85;;;35.60;19.90;;;;;;5035217;28;20060;-75
2023/06/13 12:34:30;;;;;;;4.85;2.78;;;36.40;18.70;;;;;;5035183;28;20501;-73
2023/06/13 12:37:02;;;;;;;4.47;3.03;;;37.10;17.90;;;;;;5037152;28;20400;-74
2023/06/13 12:39:30;;;;;;;7.93;3.10;;;38.10;17.50;;;;;;5050326;28;20453;-71
2023/06/13 12:42:01;;;;;;;5.60;3.20;;;39.50;17.10;;;;;;5048259;28;20060;-77
2023/06/13 12:44:30;;;;;;;3.13;2.72;;;40.60;16.60;;;;;;5041756;28;20041;-72
2023/06/13 12:46:58;;;;;;;3.47;2.50;;;40.70;16.10;;;;;;5046532;28;20071;-72
2023/06/13 12:49:24;;;;;;;2.90;2.60;;;41.60;15.80;;;;;;5012200;28;20037;-73